TimeCDT,TemperatureF,Dew PointF,Humidity,Sea Level PressureIn,VisibilityMPH,Wind Direction,Wind SpeedMPH,Gust SpeedMPH,PrecipitationIn,Events,Conditions,WindDirDegrees,DateUTC
12:13 AM,55.4,32.0,41,29.86,10.0,SE,4.6,-,N/A,,Mostly Cloudy,130,2013-05-28 05:13:00
12:33 AM,55.4,32.0,41,29.85,10.0,SE,4.6,-,N/A,,Overcast,140,2013-05-28 05:33:00
12:53 AM,53.6,32.0,44,29.85,10.0,SE,4.6,-,N/A,,Scattered Clouds,140,2013-05-28 05:53:00
1:13 AM,53.6,32.0,44,29.85,10.0,SE,3.5,-,N/A,,Mostly Cloudy,130,2013-05-28 06:13:00
1:33 AM,53.6,32.0,44,29.85,10.0,Calm,Calm,-,N/A,,Overcast,0,2013-05-28 06:33:00
1:53 AM,53.6,32.0,44,29.84,10.0,SE,4.6,-,N/A,,Overcast,130,2013-05-28 06:53:00
2:13 AM,53.6,33.8,47,29.83,10.0,SE,3.5,-,N/A,,Overcast,130,2013-05-28 07:13:00
2:33 AM,53.6,33.8,47,29.83,10.0,SE,4.6,-,N/A,,Overcast,140,2013-05-28 07:33:00
2:53 AM,53.6,33.8,47,29.81,10.0,SE,5.8,-,N/A,,Overcast,130,2013-05-28 07:53:00
3:13 AM,53.6,33.8,47,29.81,10.0,SE,6.9,-,N/A,,Overcast,140,2013-05-28 08:13:00
3:33 AM,51.8,33.8,50,29.81,10.0,SE,5.8,-,N/A,,Overcast,130,2013-05-28 08:33:00
3:53 AM,51.8,33.8,50,29.81,10.0,SE,3.5,-,N/A,,Mostly Cloudy,140,2013-05-28 08:53:00
4:13 AM,50.0,35.6,58,29.82,10.0,Calm,Calm,-,N/A,,Scattered Clouds,0,2013-05-28 09:13:00
4:33 AM,46.4,35.6,66,29.82,10.0,Calm,Calm,-,N/A,,Clear,0,2013-05-28 09:33:00
4:53 AM,46.4,35.6,66,29.82,10.0,Calm,Calm,-,N/A,,Clear,0,2013-05-28 09:53:00
5:13 AM,46.4,35.6,66,29.82,10.0,Calm,Calm,-,N/A,,Clear,0,2013-05-28 10:13:00
5:33 AM,44.6,35.6,71,29.82,10.0,Calm,Calm,-,N/A,,Scattered Clouds,0,2013-05-28 10:33:00
5:53 AM,48.2,35.6,62,29.80,10.0,ESE,3.5,-,N/A,,Mostly Cloudy,110,2013-05-28 10:53:00
6:13 AM,50.0,37.4,62,29.80,10.0,Calm,Calm,-,N/A,,Overcast,0,2013-05-28 11:13:00
6:33 AM,50.0,37.4,62,29.80,10.0,ESE,4.6,-,N/A,,Overcast,110,2013-05-28 11:33:00
6:53 AM,51.8,39.2,62,29.81,10.0,Calm,Calm,-,N/A,,Overcast,0,2013-05-28 11:53:00
7:13 AM,51.8,39.2,62,29.80,10.0,ESE,4.6,-,N/A,,Overcast,120,2013-05-28 12:13:00
7:33 AM,53.6,39.2,58,29.80,10.0,SE,3.5,-,N/A,,Overcast,140,2013-05-28 12:33:00
7:53 AM,53.6,39.2,58,29.79,10.0,SE,4.6,-,N/A,,Overcast,140,2013-05-28 12:53:00
8:14 AM,53.6,41.0,62,29.78,10.0,SE,4.6,-,N/A,,Overcast,130,2013-05-28 13:14:00
8:33 AM,57.2,41.0,55,29.77,10.0,SE,4.6,-,N/A,,Mostly Cloudy,140,2013-05-28 13:33:00
8:53 AM,57.2,42.8,59,29.76,10.0,SSE,6.9,-,N/A,,Overcast,150,2013-05-28 13:53:00
9:13 AM,57.2,42.8,59,29.76,10.0,ESE,4.6,-,N/A,,Overcast,120,2013-05-28 14:13:00
9:33 AM,57.2,42.8,59,29.76,10.0,ESE,4.6,-,N/A,,Overcast,110,2013-05-28 14:33:00
9:53 AM,57.2,42.8,59,29.76,10.0,SE,6.9,-,N/A,,Mostly Cloudy,140,2013-05-28 14:53:00
10:14 AM,60.8,42.8,52,29.75,10.0,SE,4.6,-,N/A,,Mostly Cloudy,140,2013-05-28 15:14:00
10:33 AM,62.6,42.8,48,29.75,10.0,SSE,6.9,-,N/A,,Mostly Cloudy,150,2013-05-28 15:33:00
10:55 AM,62.6,42.8,48,29.75,10.0,ESE,5.8,-,N/A,,Mostly Cloudy,110,2013-05-28 15:55:00
11:13 AM,62.6,42.8,48,29.75,10.0,ESE,5.8,-,N/A,,Overcast,120,2013-05-28 16:13:00
11:33 AM,64.4,42.8,45,29.74,10.0,ESE,5.8,-,N/A,,Mostly Cloudy,110,2013-05-28 16:33:00
11:53 AM,66.2,42.8,43,29.74,10.0,SE,5.8,-,N/A,,Scattered Clouds,140,2013-05-28 16:53:00
12:13 PM,69.8,42.8,38,29.73,10.0,SE,4.6,-,N/A,,Scattered Clouds,140,2013-05-28 17:13:00
12:33 PM,68.0,44.6,43,29.73,10.0,ESE,6.9,-,N/A,,Scattered Clouds,120,2013-05-28 17:33:00
12:54 PM,66.2,46.4,49,29.73,10.0,SE,10.4,-,N/A,,Scattered Clouds,140,2013-05-28 17:54:00
1:13 PM,66.2,44.6,46,29.73,10.0,ESE,6.9,-,N/A,,Mostly Cloudy,110,2013-05-28 18:13:00
1:33 PM,66.2,44.6,46,29.72,10.0,SSE,8.1,-,N/A,,Mostly Cloudy,150,2013-05-28 18:33:00
1:53 PM,69.8,44.6,40,29.71,10.0,SSE,8.1,-,N/A,,Scattered Clouds,160,2013-05-28 18:53:00
2:13 PM,69.8,44.6,40,29.71,10.0,SE,9.2,17.3,N/A,,Scattered Clouds,130,2013-05-28 19:13:00
2:33 PM,71.6,44.6,38,29.70,10.0,ESE,6.9,18.4,N/A,,Scattered Clouds,120,2013-05-28 19:33:00
2:53 PM,71.6,44.6,38,29.71,10.0,South,6.9,-,N/A,,Scattered Clouds,170,2013-05-28 19:53:00
3:13 PM,71.6,44.6,38,29.70,10.0,SSW,8.1,-,N/A,,Scattered Clouds,200,2013-05-28 20:13:00
3:33 PM,71.6,44.6,38,29.70,10.0,SSE,9.2,-,N/A,,Scattered Clouds,160,2013-05-28 20:33:00
3:54 PM,69.8,46.4,43,29.70,10.0,South,5.8,-,N/A,,Mostly Cloudy,180,2013-05-28 20:54:00
4:13 PM,69.8,46.4,43,29.70,10.0,South,6.9,-,N/A,,Overcast,180,2013-05-28 21:13:00
4:33 PM,71.6,46.4,41,29.69,10.0,South,4.6,-,N/A,,Mostly Cloudy,190,2013-05-28 21:33:00
4:53 PM,69.8,46.4,43,29.69,10.0,South,4.6,-,N/A,,Overcast,180,2013-05-28 21:53:00
5:13 PM,69.8,46.4,43,29.69,10.0,Calm,Calm,-,N/A,,Overcast,0,2013-05-28 22:13:00
5:33 PM,69.8,46.4,43,29.69,10.0,Calm,Calm,-,N/A,,Mostly Cloudy,0,2013-05-28 22:33:00
5:54 PM,71.6,46.4,41,29.68,10.0,Calm,Calm,-,N/A,,Mostly Cloudy,0,2013-05-28 22:54:00
6:13 PM,71.6,46.4,41,29.67,10.0,SE,5.8,-,N/A,,Scattered Clouds,140,2013-05-28 23:13:00
6:33 PM,69.8,46.4,43,29.68,10.0,South,4.6,-,N/A,,Mostly Cloudy,190,2013-05-28 23:33:00
6:53 PM,69.8,46.4,43,29.68,10.0,South,6.9,-,N/A,,Overcast,190,2013-05-28 23:53:00
7:13 PM,68.0,48.2,49,29.68,10.0,South,6.9,-,N/A,,Overcast,180,2013-05-29 00:13:00
7:33 PM,66.2,48.2,52,29.69,10.0,South,3.5,-,N/A,,Overcast,190,2013-05-29 00:33:00
7:53 PM,66.2,48.2,52,29.69,10.0,SSW,3.5,-,N/A,,Overcast,200,2013-05-29 00:53:00
8:13 PM,66.2,48.2,52,29.69,10.0,Calm,Calm,-,N/A,,Overcast,0,2013-05-29 01:13:00
8:33 PM,64.4,48.2,56,29.69,10.0,South,4.6,-,N/A,,Overcast,180,2013-05-29 01:33:00
8:53 PM,64.4,48.2,56,29.69,10.0,South,5.8,-,N/A,,Overcast,190,2013-05-29 01:53:00
9:13 PM,64.4,48.2,56,29.68,10.0,Calm,Calm,-,N/A,,Overcast,0,2013-05-29 02:13:00
9:33 PM,62.6,48.2,59,29.69,10.0,SSW,6.9,-,N/A,,Overcast,200,2013-05-29 02:33:00
9:53 PM,62.6,48.2,59,29.69,10.0,South,5.8,-,N/A,,Overcast,180,2013-05-29 02:53:00
10:13 PM,62.6,48.2,59,29.69,10.0,South,5.8,-,N/A,,Overcast,170,2013-05-29 03:13:00
10:33 PM,60.8,48.2,63,29.69,10.0,SSE,3.5,-,N/A,,Overcast,150,2013-05-29 03:33:00
10:53 PM,60.8,48.2,63,29.69,10.0,South,3.5,-,N/A,,Overcast,170,2013-05-29 03:53:00
11:13 PM,60.8,48.2,63,29.68,10.0,South,5.8,-,N/A,,Overcast,170,2013-05-29 04:13:00
11:33 PM,60.8,48.2,63,29.68,10.0,SSE,4.6,-,N/A,,Overcast,160,2013-05-29 04:33:00
11:53 PM,59.0,46.4,63,29.69,7.0,SSE,6.9,-,N/A,,Overcast,160,2013-05-29 04:53:00